首页
METAR-TAF:

METAR-TAF

机场 :

巴色國際機場

Pakse, 老挝

纬度: 15-08-02N, 经度: 105-46-55E, 海拔: 107米

当前天气观测

该预报发布于2小时和12分钟前的12:00 UTC
风速2节,风向东南
温度 31°C
湿度 71%
气压 1006 hPa
能见度10公里或以上
少量云层高于2000英尺
多云层高于20000英尺

METAR: VLPS 171200Z 14002KT 9999 FEW020 BKN200 31/25 Q1006 NOSIG

时间: 21:12 (14:12 UTC)

预报

该预报发布于3小时和12分钟前的11:00 UTC
预报有效从17日的 12点(UTC)到 18日的 12点(UTC)
风速4节,风向
能见度10公里或以上
散云层高于2000英尺
散云层高于20000英尺

TAF: VLPS 171100Z 1712/1812 18004KT 9999 SCT020 SCT200

超过4000个机场的气象观测和天气预报(METAR&TAF报告)。

可查询的气象台以黄色和红色小点在地图上表示。

将鼠标移到小点上方,可查看气象台名称。

然后点击查看天气观测和预报。

如需切换地图:点击带黑十字的绿色按钮放大地图;点击带横线的绿色按钮缩小地图;或者点击绿色箭头查看邻近地区的地图。


METAR-TAF: